KAMG/AMG METAR and TAF weather

Enter ICAO airport designator
Station Type Date Time Source
KAMG METAR 2018/04/26 14:53 UTC NOAA

KAMG 261453Z AUTO 19009KT 10SM CLR 23/12 A2989 RMK AO2 SLP120 T02280122 50001


Station Type Date Time Source
KAMG Decoded METAR 2018/04/26 14:53 UTC NOAA

ALMA BACON COUNTY AIRPORT, GA, United States (KAMG) 31-32N 82-30W 59M
Apr 26, 2018 - 10:53 AM EDT / 2018.04.26 1453 UTC
Wind: from the S (190 degrees) at 10 MPH (9 KT):0
Visibility: 10 mile(s):0
Sky conditions: clear
Temperature: 73.0 F (22.8 C)
Dew Point: 54.0 F (12.2 C)
Relative Humidity: 51%
Pressure (altimeter): 29.89 in. Hg (1012 hPa)
Pressure tendency: 0.00 inches (0.1 hPa) higher than three hours ago
ob: KAMG 261453Z AUTO 19009KT 10SM CLR 23/12 A2989 RMK AO2 SLP120 T02280122 50001
cycle: 15

Station Type Date Time Source
KAMG TAF UTC NOAA

Error!


Example: see airport list